createdAt,value
2022-08-30T00:00:31.016Z,90.64
2022-08-30T00:03:01.006Z,90.71
2022-08-30T00:05:30.651Z,91.13
2022-08-30T00:08:07.817Z,90.55
2022-08-30T00:10:36.723Z,91.64
2022-08-30T00:13:07.616Z,92.61
2022-08-30T00:15:36.587Z,92.58
2022-08-30T00:18:06.409Z,92.58
2022-08-30T00:20:37.851Z,93.03
2022-08-30T00:23:08.352Z,93.41
2022-08-30T00:25:37.115Z,93.69
2022-08-30T00:28:06.475Z,94.08
2022-08-30T00:30:35.053Z,93.79
2022-08-30T00:33:04.476Z,93.67
2022-08-30T00:35:33.165Z,94.22
2022-08-30T00:38:02.587Z,94.59
2022-08-30T00:40:34.295Z,95.35
2022-08-30T00:43:06.027Z,95.65
2022-08-30T00:45:38.743Z,95.89
2022-08-30T00:48:09.174Z,95.25
2022-08-30T00:50:44.687Z,94.40
2022-08-30T00:53:21.283Z,95.73
2022-08-30T00:55:51.609Z,96.24
2022-08-30T00:58:26.362Z,95.83
2022-08-30T01:00:59.092Z,95.51
2022-08-30T01:03:28.935Z,96.10
2022-08-30T01:06:00.420Z,96.39
2022-08-30T01:08:28.938Z,96.05
2022-08-30T01:11:00.758Z,96.78
2022-08-30T01:13:29.815Z,97.72
2022-08-30T01:16:01.051Z,97.57
2022-08-30T01:18:32.539Z,97.90
2022-08-30T01:21:13.732Z,97.40
2022-08-30T01:23:48.971Z,97.35
2022-08-30T01:26:21.874Z,97.09
2022-08-30T01:28:56.568Z,97.47
2022-08-30T01:31:25.543Z,97.55
2022-08-30T01:33:55.292Z,98.98
2022-08-30T01:36:26.266Z,99.35
2022-08-30T01:38:59.380Z,99.72
2022-08-30T01:41:33.348Z,100.00
2022-08-30T01:44:06.669Z,100.00
2022-08-30T01:46:40.693Z,100.00
2022-08-30T01:49:16.341Z,99.38
2022-08-30T01:51:46.567Z,99.28
2022-08-30T01:54:16.866Z,98.90
2022-08-30T01:56:45.385Z,99.13
2022-08-30T01:59:14.431Z,98.83
2022-08-30T02:01:43.823Z,98.93
2022-08-30T02:04:14.518Z,98.73
2022-08-30T02:06:44.760Z,98.42
2022-08-30T02:09:14.480Z,98.65
2022-08-30T02:11:45.762Z,98.56
2022-08-30T02:14:14.811Z,98.98
2022-08-30T02:16:44.381Z,98.75
2022-08-30T02:19:13.393Z,99.15
2022-08-30T02:21:43.398Z,99.80
2022-08-30T02:24:12.097Z,99.42
2022-08-30T02:26:41.027Z,100.00
2022-08-30T02:29:11.167Z,100.00
2022-08-30T02:31:39.819Z,99.91
2022-08-30T02:34:09.006Z,99.71
2022-08-30T02:36:39.534Z,99.97
2022-08-30T02:39:09.033Z,99.83
2022-08-30T02:41:38.848Z,99.17
2022-08-30T02:44:08.896Z,99.92
2022-08-30T02:46:39.636Z,100.00
2022-08-30T02:49:32.171Z,99.84
2022-08-30T02:51:59.069Z,99.94
2022-08-30T02:54:28.563Z,100.00
2022-08-30T02:56:58.050Z,99.76
2022-08-30T02:59:26.948Z,100.00
2022-08-30T03:01:57.659Z,100.00
2022-08-30T03:04:26.969Z,100.00
2022-08-30T03:07:14.822Z,99.84
2022-08-30T03:09:44.314Z,100.00
2022-08-30T03:12:14.478Z,99.59
2022-08-30T03:14:43.492Z,99.66
2022-08-30T03:17:15.667Z,99.95
2022-08-30T03:19:46.336Z,99.92
2022-08-30T03:22:15.845Z,99.73
2022-08-30T03:24:45.393Z,99.33
2022-08-30T03:27:14.132Z,99.11
2022-08-30T03:29:44.414Z,98.99
2022-08-30T03:32:15.272Z,99.22
2022-08-30T03:34:44.287Z,98.71
2022-08-30T03:37:13.618Z,98.82
2022-08-30T03:39:42.836Z,99.28
2022-08-30T03:42:12.179Z,99.55
2022-08-30T03:44:41.701Z,99.03
2022-08-30T03:47:11.444Z,99.42
2022-08-30T03:49:41.519Z,100.00
2022-08-30T03:52:10.745Z,100.00
2022-08-30T03:54:40.837Z,99.77
2022-08-30T03:57:13.344Z,100.00
2022-08-30T03:59:49.384Z,100.00
2022-08-30T04:02:19.252Z,99.93
2022-08-30T04:04:49.610Z,100.00
2022-08-30T04:07:19.206Z,100.00
2022-08-30T04:09:48.651Z,99.99
2022-08-30T04:12:22.612Z,100.00
2022-08-30T04:14:52.276Z,100.00
2022-08-30T04:17:23.691Z,100.00
2022-08-30T04:19:53.672Z,100.00
2022-08-30T04:22:23.792Z,100.00
2022-08-30T04:24:52.363Z,100.00
2022-08-30T04:27:22.493Z,100.00
2022-08-30T04:29:51.621Z,100.00
2022-08-30T04:32:21.057Z,100.00
2022-08-30T04:34:49.809Z,100.00
2022-08-30T04:37:19.788Z,100.00
2022-08-30T04:39:50.883Z,100.00
2022-08-30T04:42:20.027Z,100.00
2022-08-30T04:44:51.543Z,100.00
2022-08-30T04:47:20.501Z,100.00
2022-08-30T04:49:49.602Z,100.00
2022-08-30T04:52:19.763Z,100.00
2022-08-30T04:54:48.445Z,100.00
2022-08-30T04:57:18.024Z,100.00
2022-08-30T04:59:48.113Z,100.00
2022-08-30T05:02:16.948Z,100.00
2022-08-30T05:04:59.318Z,100.00
2022-08-30T05:07:31.179Z,100.00
2022-08-30T05:10:00.735Z,100.00
2022-08-30T05:12:29.287Z,100.00
2022-08-30T05:14:58.698Z,100.00
2022-08-30T05:17:27.802Z,100.00
2022-08-30T05:19:56.367Z,100.00
2022-08-30T05:22:24.897Z,100.00
2022-08-30T05:24:55.372Z,100.00
2022-08-30T05:27:25.166Z,100.00
2022-08-30T05:29:53.648Z,100.00
2022-08-30T05:32:22.810Z,100.00
2022-08-30T05:34:51.994Z,100.00
2022-08-30T05:37:21.149Z,100.00
2022-08-30T05:39:51.971Z,100.00
2022-08-30T05:42:22.648Z,100.00
2022-08-30T05:44:53.485Z,100.00
2022-08-30T05:47:23.329Z,100.00
2022-08-30T05:49:52.335Z,100.00
2022-08-30T05:52:21.433Z,100.00
2022-08-30T05:54:55.732Z,100.00
2022-08-30T05:57:26.790Z,100.00
2022-08-30T05:59:55.322Z,100.00
2022-08-30T06:02:23.952Z,100.00
2022-08-30T06:04:52.488Z,100.00
2022-08-30T06:07:22.860Z,100.00
2022-08-30T06:09:51.980Z,100.00
2022-08-30T06:12:20.478Z,100.00
2022-08-30T06:14:51.009Z,100.00
2022-08-30T06:17:22.215Z,100.00
2022-08-30T06:19:51.529Z,100.00
2022-08-30T06:22:20.257Z,100.00
2022-08-30T06:24:57.993Z,100.00
2022-08-30T06:27:27.072Z,100.00
2022-08-30T06:29:57.392Z,100.00
2022-08-30T06:32:26.667Z,100.00
2022-08-30T06:34:55.223Z,100.00
2022-08-30T06:37:29.672Z,100.00
2022-08-30T06:39:59.669Z,100.00
2022-08-30T06:42:32.614Z,100.00
2022-08-30T06:45:11.104Z,100.00
2022-08-30T06:47:41.628Z,100.00
2022-08-30T06:50:15.824Z,100.00
2022-08-30T06:52:47.279Z,100.00
2022-08-30T06:55:18.006Z,100.00
2022-08-30T06:57:47.499Z,100.00
2022-08-30T07:00:18.788Z,100.00
2022-08-30T07:02:47.500Z,100.00
2022-08-30T07:05:18.948Z,99.42
2022-08-30T07:07:47.766Z,99.34
2022-08-30T07:10:17.310Z,98.78
2022-08-30T07:12:46.041Z,98.03
2022-08-30T07:15:20.541Z,98.30
2022-08-30T07:18:06.266Z,98.81
2022-08-30T07:20:40.044Z,98.39
2022-08-30T07:23:11.049Z,97.00
2022-08-30T07:25:41.411Z,96.39
2022-08-30T07:28:12.305Z,95.44
2022-08-30T07:30:43.553Z,94.79
2022-08-30T07:33:12.101Z,93.40
2022-08-30T07:35:40.748Z,92.34
2022-08-30T07:38:13.666Z,90.77
2022-08-30T07:40:42.815Z,87.97
2022-08-30T07:43:11.353Z,87.88
2022-08-30T07:45:42.535Z,86.87
2022-08-30T07:48:14.158Z,85.49
2022-08-30T07:50:47.433Z,85.33
2022-08-30T07:53:16.040Z,84.21
2022-08-30T07:55:44.607Z,83.67
2022-08-30T07:58:13.797Z,82.85
2022-08-30T08:00:43.991Z,82.27
2022-08-30T08:03:12.893Z,80.39
2022-08-30T08:05:44.127Z,80.06
2022-08-30T08:08:14.001Z,80.28
2022-08-30T08:10:44.085Z,80.17
2022-08-30T08:13:12.923Z,79.38
2022-08-30T08:15:44.292Z,79.69
2022-08-30T08:18:13.087Z,79.50
2022-08-30T08:20:42.273Z,79.32
2022-08-30T08:23:10.823Z,78.84
2022-08-30T08:25:43.079Z,78.46
2022-08-30T08:28:11.892Z,77.26
2022-08-30T08:30:47.612Z,77.67
2022-08-30T08:33:18.237Z,77.17
2022-08-30T08:35:46.916Z,76.19
2022-08-30T08:38:16.216Z,74.91
2022-08-30T08:41:01.958Z,74.70
2022-08-30T08:43:35.909Z,74.50
2022-08-30T08:46:16.135Z,74.13
2022-08-30T08:49:05.506Z,73.40
2022-08-30T08:51:54.768Z,73.73
2022-08-30T08:54:33.255Z,72.56
2022-08-30T08:57:02.705Z,72.87
2022-08-30T08:59:31.392Z,72.78
2022-08-30T09:02:16.510Z,72.53
2022-08-30T09:04:45.787Z,71.44
2022-08-30T09:07:23.193Z,70.47
2022-08-30T09:09:52.479Z,70.10
2022-08-30T09:12:22.032Z,69.64
2022-08-30T09:14:55.794Z,69.56
2022-08-30T09:17:25.799Z,69.71
2022-08-30T09:20:02.570Z,68.66
2022-08-30T09:22:38.334Z,68.17
2022-08-30T09:25:24.526Z,67.54
2022-08-30T09:27:56.012Z,66.47
2022-08-30T09:30:28.143Z,64.53
2022-08-30T09:33:01.679Z,65.07
2022-08-30T09:35:39.001Z,64.82
2022-08-30T09:38:10.743Z,63.15
2022-08-30T09:40:46.602Z,61.98
2022-08-30T09:43:24.306Z,61.14
2022-08-30T09:46:11.245Z,61.44
2022-08-30T09:48:47.555Z,60.40
2022-08-30T09:51:49.122Z,59.97
2022-08-30T09:54:27.311Z,59.37
2022-08-30T09:57:13.307Z,59.31
2022-08-30T09:59:52.358Z,58.48
2022-08-30T10:03:13.901Z,58.82
2022-08-30T10:05:58.864Z,58.63
2022-08-30T10:08:44.867Z,57.77
2022-08-30T10:11:25.538Z,57.84
2022-08-30T10:14:33.692Z,57.37
2022-08-30T10:17:13.606Z,58.12
2022-08-30T10:20:03.957Z,57.64
2022-08-30T10:22:40.127Z,57.12
2022-08-30T10:25:17.987Z,57.24
2022-08-30T10:27:53.381Z,57.18
2022-08-30T10:30:23.990Z,57.31
2022-08-30T10:33:01.669Z,56.93
2022-08-30T10:35:38.990Z,56.79
2022-08-30T10:38:19.735Z,56.37
2022-08-30T10:41:15.155Z,56.54
2022-08-30T10:43:55.167Z,56.50
2022-08-30T10:46:33.595Z,55.43
2022-08-30T10:49:09.945Z,55.45
2022-08-30T10:51:48.662Z,55.02
2022-08-30T10:54:32.583Z,54.74
2022-08-30T10:57:02.071Z,54.34
2022-08-30T10:59:31.586Z,54.28
2022-08-30T11:02:51.667Z,53.85
2022-08-30T11:05:43.777Z,53.70
2022-08-30T11:08:39.183Z,53.07
2022-08-30T11:11:28.402Z,53.29
2022-08-30T11:14:05.807Z,53.33
2022-08-30T11:16:41.796Z,53.41
2022-08-30T11:19:21.705Z,52.93
2022-08-30T11:21:52.041Z,53.39
2022-08-30T11:24:24.067Z,52.96
2022-08-30T11:27:03.479Z,52.76
2022-08-30T11:29:45.454Z,52.99
2022-08-30T11:32:57.396Z,52.58
2022-08-30T11:35:48.620Z,52.80
2022-08-30T11:39:06.311Z,52.05
2022-08-30T11:41:43.185Z,51.58
2022-08-30T11:44:32.527Z,52.03
2022-08-30T11:47:06.899Z,50.92
2022-08-30T11:50:09.933Z,51.03
2022-08-30T11:52:59.110Z,51.16
2022-08-30T11:55:53.373Z,50.31
2022-08-30T11:58:38.361Z,50.30
2022-08-30T12:01:41.823Z,49.29
2022-08-30T12:04:38.117Z,49.83
2022-08-30T12:07:10.027Z,49.98
2022-08-30T12:10:22.039Z,49.00
2022-08-30T12:12:59.583Z,46.71
2022-08-30T12:15:59.058Z,47.70
2022-08-30T12:18:43.242Z,47.57
2022-08-30T12:21:33.414Z,47.75
2022-08-30T12:24:22.462Z,47.60
2022-08-30T12:26:53.644Z,47.43
2022-08-30T12:29:25.388Z,46.49
2022-08-30T12:31:58.074Z,46.86
2022-08-30T12:34:35.139Z,45.42
2022-08-30T12:37:10.770Z,44.62
2022-08-30T12:39:42.880Z,44.88
2022-08-30T12:42:22.385Z,44.36
2022-08-30T12:44:54.947Z,45.26
2022-08-30T12:47:31.278Z,44.25
2022-08-30T12:50:02.766Z,44.51
2022-08-30T12:52:38.375Z,44.16
2022-08-30T12:55:17.659Z,44.33
2022-08-30T12:58:01.286Z,43.81
2022-08-30T13:00:34.329Z,43.57
2022-08-30T13:03:24.706Z,42.90
2022-08-30T13:05:57.531Z,42.93
2022-08-30T13:08:34.554Z,42.52
2022-08-30T13:11:09.099Z,42.63
2022-08-30T13:13:51.964Z,42.46
2022-08-30T13:16:29.565Z,41.66
2022-08-30T13:19:33.400Z,41.82
2022-08-30T13:22:05.734Z,41.63
2022-08-30T13:24:34.424Z,42.95
2022-08-30T13:27:09.765Z,42.18
2022-08-30T13:29:38.485Z,41.54
2022-08-30T13:32:07.349Z,41.39
2022-08-30T13:34:36.327Z,41.85
2022-08-30T13:37:44.108Z,42.16
2022-08-30T13:40:01.273Z,41.86
2022-08-30T13:42:33.538Z,42.24
2022-08-30T13:45:02.588Z,41.94
2022-08-30T13:47:34.876Z,41.90
2022-08-30T13:50:04.198Z,41.66
2022-08-30T13:52:34.207Z,41.69
2022-08-30T13:55:03.729Z,40.31
2022-08-30T14:00:23.790Z,40.63
2022-08-30T14:02:57.754Z,41.40
2022-08-30T14:11:18.663Z,41.12
2022-08-30T14:16:39.437Z,40.72
2022-08-30T14:19:08.719Z,41.02
2022-08-30T14:21:39.033Z,40.88
2022-08-30T14:24:09.795Z,40.83
2022-08-30T14:26:43.964Z,41.38
2022-08-30T14:29:17.964Z,41.21
2022-08-30T14:31:48.680Z,41.30
2022-08-30T14:34:23.349Z,41.08
2022-08-30T14:36:51.938Z,41.02
2022-08-30T14:39:23.442Z,41.04
2022-08-30T14:41:56.037Z,40.77
2022-08-30T14:44:26.396Z,40.79
2022-08-30T14:46:56.513Z,40.88
2022-08-30T14:49:26.922Z,41.27
2022-08-30T14:51:56.215Z,41.16
2022-08-30T14:54:29.929Z,41.21
2022-08-30T14:56:59.563Z,41.15
2022-08-30T14:59:28.337Z,40.86
2022-08-30T15:01:57.673Z,41.07
2022-08-30T15:04:26.795Z,40.83
2022-08-30T15:06:56.444Z,41.28
2022-08-30T15:09:28.675Z,40.90
2022-08-30T15:12:01.321Z,41.08
2022-08-30T15:14:33.372Z,40.26
2022-08-30T15:17:03.366Z,39.58
2022-08-30T15:19:34.019Z,39.50
2022-08-30T15:22:05.314Z,39.56
2022-08-30T15:24:36.083Z,39.30
2022-08-30T15:27:05.133Z,39.19
2022-08-30T15:29:39.062Z,39.11
2022-08-30T15:32:08.766Z,38.98
2022-08-30T15:34:38.258Z,38.73
2022-08-30T15:37:07.829Z,38.48
2022-08-30T15:39:38.036Z,38.85
2022-08-30T15:42:09.932Z,38.55
2022-08-30T15:44:38.897Z,38.34
2022-08-30T15:47:08.083Z,38.83
2022-08-30T15:49:36.772Z,38.98
2022-08-30T15:52:07.947Z,38.97
2022-08-30T15:54:38.342Z,38.72
2022-08-30T15:57:07.148Z,38.74
2022-08-30T15:59:35.696Z,38.72
2022-08-30T16:02:04.975Z,39.18
2022-08-30T16:04:34.526Z,38.79
2022-08-30T16:07:03.150Z,38.86
2022-08-30T16:09:32.980Z,39.31
2022-08-30T16:12:05.110Z,38.75
2022-08-30T16:14:34.184Z,38.66
2022-08-30T16:17:04.071Z,38.24
2022-08-30T16:19:33.695Z,38.46
2022-08-30T16:22:03.107Z,38.72
2022-08-30T16:24:32.120Z,38.13
2022-08-30T16:27:03.261Z,39.02
2022-08-30T16:29:35.958Z,38.91
2022-08-30T16:32:06.171Z,38.93
2022-08-30T16:34:35.871Z,39.22
2022-08-30T16:37:07.758Z,39.22
2022-08-30T16:39:36.815Z,39.68
2022-08-30T16:42:08.185Z,39.50
2022-08-30T16:44:36.778Z,40.17
2022-08-30T16:47:06.552Z,39.75
2022-08-30T16:49:37.827Z,39.28
2022-08-30T16:52:07.177Z,39.13
2022-08-30T16:54:35.683Z,39.27
2022-08-30T16:57:06.702Z,39.83
2022-08-30T16:59:35.470Z,39.40
2022-08-30T17:02:04.890Z,38.92
2022-08-30T17:04:33.458Z,38.90
2022-08-30T17:07:02.157Z,39.42
2022-08-30T17:09:31.054Z,39.08
2022-08-30T17:12:00.031Z,39.12
2022-08-30T17:14:30.678Z,39.39
2022-08-30T17:17:00.856Z,38.96
2022-08-30T17:19:31.469Z,38.30
2022-08-30T17:22:00.599Z,38.80
2022-08-30T17:24:30.088Z,38.43
2022-08-30T17:27:01.613Z,38.19
2022-08-30T17:29:31.558Z,38.24
2022-08-30T17:32:00.693Z,38.90
2022-08-30T17:34:29.535Z,39.36
2022-08-30T17:37:00.186Z,39.88
2022-08-30T17:39:30.598Z,39.77
2022-08-30T17:42:00.830Z,39.93
2022-08-30T17:44:38.110Z,40.23
2022-08-30T17:47:11.221Z,40.04
2022-08-30T17:49:40.141Z,40.08
2022-08-30T17:52:11.549Z,40.67
2022-08-30T17:54:41.700Z,40.49
2022-08-30T17:57:11.606Z,40.49
2022-08-30T17:59:41.990Z,41.21
2022-08-30T18:02:12.353Z,41.24
2022-08-30T18:04:42.568Z,41.46
2022-08-30T18:07:12.451Z,41.85
2022-08-30T18:09:42.012Z,42.27
2022-08-30T18:12:13.257Z,42.46
2022-08-30T18:14:44.858Z,42.10
2022-08-30T18:17:13.422Z,42.85
2022-08-30T18:19:46.496Z,42.83
2022-08-30T18:22:31.201Z,42.84
2022-08-30T18:25:02.594Z,42.88
2022-08-30T18:27:34.101Z,43.72
2022-08-30T18:30:11.863Z,43.76
2022-08-30T18:32:40.537Z,43.51
2022-08-30T18:35:10.901Z,44.17
2022-08-30T18:37:39.556Z,44.63
2022-08-30T18:40:10.095Z,44.72
2022-08-30T18:42:47.931Z,44.77
2022-08-30T18:45:17.941Z,45.14
2022-08-30T18:47:47.015Z,45.00
2022-08-30T18:50:21.920Z,45.22
2022-08-30T18:52:53.949Z,45.77
2022-08-30T18:55:24.637Z,46.02
2022-08-30T18:57:53.279Z,46.22
2022-08-30T19:00:24.152Z,46.65
2022-08-30T19:02:54.244Z,47.16
2022-08-30T19:05:24.085Z,47.07
2022-08-30T19:07:55.177Z,47.41
2022-08-30T19:10:27.003Z,47.74
2022-08-30T19:12:56.539Z,47.29
2022-08-30T19:15:26.941Z,47.49
2022-08-30T19:17:56.106Z,47.71
2022-08-30T19:20:26.065Z,48.02
2022-08-30T19:23:10.945Z,48.77
2022-08-30T19:25:41.798Z,48.89
2022-08-30T19:28:11.137Z,49.26
2022-08-30T19:30:41.518Z,49.30
2022-08-30T19:33:12.279Z,49.18
2022-08-30T19:35:41.113Z,49.41
2022-08-30T19:38:09.623Z,49.57
2022-08-30T19:40:38.142Z,49.79
2022-08-30T19:43:07.254Z,50.01
2022-08-30T19:45:36.359Z,50.20
2022-08-30T19:48:06.954Z,50.55
2022-08-30T19:50:36.699Z,50.89
2022-08-30T19:53:06.605Z,51.75
2022-08-30T19:55:37.258Z,51.60
2022-08-30T19:58:05.824Z,51.75
2022-08-30T20:00:34.440Z,52.08
2022-08-30T20:03:06.546Z,52.69
2022-08-30T20:05:36.050Z,52.82
2022-08-30T20:08:05.610Z,52.95
2022-08-30T20:10:34.446Z,53.45
2022-08-30T20:13:03.946Z,53.62
2022-08-30T20:15:33.780Z,54.26
2022-08-30T20:18:06.021Z,54.44
2022-08-30T20:20:49.812Z,55.40
2022-08-30T20:23:23.209Z,55.62
2022-08-30T20:25:55.746Z,55.21
2022-08-30T20:28:26.004Z,55.71
2022-08-30T20:30:55.950Z,55.62
2022-08-30T20:33:27.228Z,55.53
2022-08-30T20:36:00.958Z,55.93
2022-08-30T20:38:30.092Z,56.29
2022-08-30T20:41:01.222Z,57.07
2022-08-30T20:43:31.856Z,57.24
2022-08-30T20:46:00.385Z,57.35
2022-08-30T20:48:29.035Z,57.66
2022-08-30T20:50:59.004Z,58.00
2022-08-30T20:53:27.989Z,57.84
2022-08-30T20:55:56.594Z,58.08
2022-08-30T20:58:25.127Z,58.74
2022-08-30T21:00:55.141Z,58.69
2022-08-30T21:03:26.147Z,59.04
2022-08-30T21:05:58.727Z,59.88
2022-08-30T21:08:27.956Z,59.70
2022-08-30T21:10:56.672Z,60.06
2022-08-30T21:13:25.072Z,60.17
2022-08-30T21:15:55.251Z,60.21
2022-08-30T21:18:30.279Z,60.38
2022-08-30T21:21:00.811Z,61.45
2022-08-30T21:23:29.998Z,61.06
2022-08-30T21:26:05.145Z,61.29
2022-08-30T21:28:33.834Z,61.45
2022-08-30T21:31:08.364Z,61.77
2022-08-30T21:33:38.135Z,61.72
2022-08-30T21:36:27.549Z,62.50
2022-08-30T21:39:00.464Z,62.62
2022-08-30T21:41:31.694Z,62.50
2022-08-30T21:44:03.716Z,63.05
2022-08-30T21:46:34.356Z,63.33
2022-08-30T21:49:06.656Z,63.27
2022-08-30T21:51:39.569Z,63.50
2022-08-30T21:54:11.049Z,63.93
2022-08-30T21:56:43.194Z,63.73
2022-08-30T21:59:13.328Z,64.31
2022-08-30T22:01:44.397Z,64.46
2022-08-30T22:04:14.426Z,64.84
2022-08-30T22:06:50.422Z,64.59
2022-08-30T22:09:23.768Z,64.97
2022-08-30T22:11:52.728Z,65.17
2022-08-30T22:14:22.348Z,65.47
2022-08-30T22:16:51.642Z,65.48
2022-08-30T22:19:23.313Z,65.68
2022-08-30T22:22:01.023Z,65.90
2022-08-30T22:24:31.984Z,65.96
2022-08-30T22:27:02.992Z,66.10
2022-08-30T22:29:31.790Z,66.28
2022-08-30T22:32:01.181Z,66.70
2022-08-30T22:34:30.099Z,66.97
2022-08-30T22:37:00.829Z,67.22
2022-08-30T22:39:29.443Z,67.25
2022-08-30T22:41:57.887Z,67.21
2022-08-30T22:44:26.620Z,67.38
2022-08-30T22:46:55.255Z,67.54
2022-08-30T22:49:23.763Z,67.65
2022-08-30T22:51:53.107Z,67.91
2022-08-30T22:54:23.867Z,67.92
2022-08-30T22:56:52.476Z,68.12
2022-08-30T22:59:24.385Z,68.31
2022-08-30T23:02:00.934Z,68.42
2022-08-30T23:04:29.615Z,68.30
2022-08-30T23:06:58.983Z,68.61
2022-08-30T23:09:29.100Z,68.74
2022-08-30T23:11:58.259Z,68.94
2022-08-30T23:14:27.708Z,68.89
2022-08-30T23:16:56.250Z,69.68
2022-08-30T23:19:24.825Z,69.22
2022-08-30T23:21:54.093Z,69.81
2022-08-30T23:24:39.970Z,69.72
2022-08-30T23:27:26.875Z,69.93
2022-08-30T23:30:12.862Z,70.12
2022-08-30T23:32:58.781Z,70.31
2022-08-30T23:35:44.738Z,70.75
2022-08-30T23:38:31.309Z,71.05
2022-08-30T23:41:17.419Z,71.17
2022-08-30T23:44:05.229Z,71.39
2022-08-30T23:46:51.469Z,71.79
2022-08-30T23:49:37.666Z,71.39
2022-08-30T23:52:23.986Z,71.59
2022-08-30T23:55:09.693Z,71.31
2022-08-30T23:57:55.663Z,71.83
